createdAt,value
2022-10-31T00:02:33.928Z,9.52
2022-10-31T00:08:00.108Z,8.35
2022-10-31T00:13:18.426Z,8.80
2022-10-31T00:18:23.958Z,8.15
2022-10-31T00:23:38.012Z,8.65
2022-10-31T00:28:48.338Z,6.78
2022-10-31T00:33:53.631Z,5.97
2022-10-31T00:39:03.299Z,6.88
2022-10-31T00:44:07.235Z,5.78
2022-10-31T00:49:13.121Z,5.10
2022-10-31T00:54:32.148Z,5.72
2022-10-31T00:59:38.841Z,5.93
2022-10-31T01:04:48.049Z,6.22
2022-10-31T01:10:09.317Z,5.35
2022-10-31T01:15:18.252Z,5.22
2022-10-31T01:20:25.111Z,5.93
2022-10-31T01:25:37.835Z,5.05
2022-10-31T01:30:50.173Z,4.85
2022-10-31T01:35:58.477Z,6.15
2022-10-31T01:41:08.108Z,5.15
2022-10-31T01:46:21.025Z,5.45
2022-10-31T01:51:29.720Z,4.75
2022-10-31T01:56:45.933Z,5.05
2022-10-31T02:01:55.116Z,5.53
2022-10-31T02:07:06.167Z,5.22
2022-10-31T02:12:17.638Z,5.00
2022-10-31T02:17:21.684Z,5.10
2022-10-31T02:22:33.152Z,5.47
2022-10-31T02:28:00.579Z,5.20
2022-10-31T02:33:14.308Z,4.75
2022-10-31T02:38:25.095Z,4.68
2022-10-31T02:43:38.480Z,4.30
2022-10-31T02:48:57.682Z,4.82
2022-10-31T02:54:05.849Z,4.85
2022-10-31T02:59:17.997Z,4.28
2022-10-31T03:04:45.552Z,4.93
2022-10-31T03:09:55.208Z,3.85
2022-10-31T03:15:07.469Z,4.25
2022-10-31T03:20:22.806Z,4.50
2022-10-31T03:25:31.359Z,4.28
2022-10-31T03:30:50.318Z,3.88
2022-10-31T03:36:02.587Z,3.78
2022-10-31T03:41:11.341Z,4.10
2022-10-31T03:46:22.779Z,4.32
2022-10-31T03:51:36.363Z,3.92
2022-10-31T03:56:44.138Z,4.82
2022-10-31T04:01:53.681Z,4.10
2022-10-31T04:07:05.165Z,4.38
2022-10-31T04:12:17.062Z,4.50
2022-10-31T04:17:28.684Z,4.95
2022-10-31T04:22:41.641Z,4.07
2022-10-31T04:27:49.650Z,3.45
2022-10-31T04:32:58.937Z,3.90
2022-10-31T04:38:16.150Z,4.10
2022-10-31T04:48:37.377Z,5.22
2022-10-31T04:53:42.058Z,3.60
2022-10-31T04:58:50.487Z,4.38
2022-10-31T05:04:03.969Z,3.75
2022-10-31T05:09:19.422Z,4.10
2022-10-31T05:14:29.101Z,3.78
2022-10-31T05:19:33.438Z,4.13
2022-10-31T05:24:49.822Z,4.95
2022-10-31T05:29:56.503Z,4.50
2022-10-31T05:35:15.213Z,4.57
2022-10-31T05:40:39.812Z,4.30
2022-10-31T05:51:19.505Z,3.40
2022-10-31T05:56:34.840Z,4.20
2022-10-31T06:01:49.003Z,3.67
2022-10-31T06:06:58.744Z,3.88
2022-10-31T06:12:10.938Z,3.70
2022-10-31T06:17:24.036Z,4.20
2022-10-31T06:22:29.671Z,3.78
2022-10-31T06:27:41.419Z,3.45
2022-10-31T06:38:16.791Z,3.58
2022-10-31T06:43:38.858Z,4.10
2022-10-31T06:48:54.490Z,3.55
2022-10-31T06:54:01.278Z,3.90
2022-10-31T06:59:17.110Z,3.75
2022-10-31T07:04:34.398Z,3.92
2022-10-31T07:09:44.966Z,5.40
2022-10-31T07:15:18.282Z,4.30
2022-10-31T07:20:28.739Z,4.60
2022-10-31T07:25:42.875Z,4.47
2022-10-31T07:30:56.299Z,3.80
2022-10-31T07:42:00.546Z,4.43
2022-10-31T07:47:04.500Z,5.25
2022-10-31T07:52:16.739Z,4.60
2022-10-31T07:57:34.262Z,5.75
2022-10-31T08:02:38.825Z,4.53
2022-10-31T08:07:48.490Z,5.80
2022-10-31T08:13:16.080Z,6.10
2022-10-31T08:18:24.788Z,5.90
2022-10-31T08:23:32.677Z,7.00
2022-10-31T08:28:42.467Z,7.13
2022-10-31T08:33:55.445Z,7.45
2022-10-31T08:39:09.993Z,8.10
2022-10-31T08:44:23.439Z,6.22
2022-10-31T08:49:30.411Z,6.80
2022-10-31T08:54:37.344Z,5.80
2022-10-31T08:59:58.880Z,5.97
2022-10-31T09:10:11.461Z,5.93
2022-10-31T09:15:29.091Z,5.85
2022-10-31T09:20:52.157Z,5.90
2022-10-31T09:26:10.119Z,5.60
2022-10-31T09:31:19.495Z,6.10
2022-10-31T09:36:30.671Z,5.57
2022-10-31T09:42:09.111Z,4.68
2022-10-31T09:47:26.561Z,4.82
2022-10-31T09:52:36.146Z,3.05
2022-10-31T09:57:47.815Z,3.35
2022-10-31T10:03:09.255Z,3.22
2022-10-31T10:08:17.576Z,3.28
2022-10-31T10:13:38.307Z,3.40
2022-10-31T10:24:45.845Z,3.15
2022-10-31T10:29:59.208Z,3.30
2022-10-31T10:35:26.072Z,3.58
2022-10-31T10:40:31.723Z,3.05
2022-10-31T10:45:59.418Z,2.83
2022-10-31T10:51:31.927Z,3.05
2022-10-31T10:57:01.107Z,2.17
2022-10-31T11:02:23.337Z,2.97
2022-10-31T11:07:31.216Z,2.80
2022-10-31T11:12:37.295Z,2.55
2022-10-31T11:17:43.050Z,2.58
2022-10-31T11:22:49.351Z,3.03
2022-10-31T11:28:09.960Z,2.90
2022-10-31T11:33:30.814Z,3.40
2022-10-31T11:38:38.415Z,2.25
2022-10-31T11:43:52.687Z,2.60
2022-10-31T11:49:03.673Z,2.70
2022-10-31T11:54:20.364Z,3.10
2022-10-31T11:59:36.343Z,2.70
2022-10-31T12:04:45.975Z,3.00
2022-10-31T12:09:59.279Z,2.57
2022-10-31T12:15:19.711Z,2.42
2022-10-31T12:20:38.470Z,2.58
2022-10-31T12:25:51.770Z,2.92
2022-10-31T12:31:05.988Z,2.88
2022-10-31T12:36:24.510Z,3.17
2022-10-31T12:41:35.924Z,2.75
2022-10-31T12:46:56.357Z,2.65
2022-10-31T12:52:09.341Z,2.60
2022-10-31T12:57:25.620Z,3.80
2022-10-31T13:02:36.190Z,3.38
2022-10-31T13:07:46.320Z,3.42
2022-10-31T13:13:20.813Z,2.70
2022-10-31T13:18:38.362Z,3.30
2022-10-31T13:23:51.356Z,2.60
2022-10-31T13:29:11.132Z,2.75
2022-10-31T13:34:25.899Z,3.40
2022-10-31T13:39:40.031Z,2.83
2022-10-31T13:44:44.745Z,3.35
2022-10-31T13:49:54.836Z,2.85
2022-10-31T13:55:15.305Z,3.13
2022-10-31T14:06:01.124Z,3.10
2022-10-31T14:11:09.118Z,3.80
2022-10-31T14:16:23.264Z,3.55
2022-10-31T14:21:47.822Z,3.13
2022-10-31T14:26:56.716Z,3.65
2022-10-31T14:32:12.317Z,3.30
2022-10-31T14:37:31.815Z,3.90
2022-10-31T14:42:46.126Z,3.78
2022-10-31T14:47:57.332Z,4.05
2022-10-31T14:53:36.716Z,4.32
2022-10-31T14:58:58.159Z,4.85
2022-10-31T15:04:27.922Z,5.10
2022-10-31T15:09:46.078Z,5.68
2022-10-31T15:14:58.170Z,6.07
2022-10-31T15:20:11.811Z,6.20
2022-10-31T15:25:33.713Z,7.10
2022-10-31T15:30:39.588Z,6.28
2022-10-31T15:35:54.140Z,7.13
2022-10-31T15:41:07.087Z,6.45
2022-10-31T15:46:25.374Z,10.73
2022-10-31T15:51:41.859Z,7.97
2022-10-31T15:56:51.568Z,7.50
2022-10-31T16:02:03.689Z,7.57
2022-10-31T16:07:22.866Z,7.43
2022-10-31T16:12:45.019Z,7.75
2022-10-31T16:17:52.656Z,6.88
2022-10-31T16:23:10.938Z,8.00
2022-10-31T16:28:31.160Z,6.88
2022-10-31T16:33:42.580Z,8.00
2022-10-31T16:38:49.378Z,7.07
2022-10-31T16:44:01.659Z,10.00
2022-10-31T16:49:10.821Z,9.27
2022-10-31T16:54:18.391Z,8.27
2022-10-31T16:59:37.920Z,8.50
2022-10-31T17:04:58.008Z,9.80
2022-10-31T17:10:08.520Z,8.85
2022-10-31T17:15:18.218Z,8.05
2022-10-31T17:20:49.271Z,8.57
2022-10-31T17:25:59.505Z,9.20
2022-10-31T17:31:21.964Z,8.18
2022-10-31T17:36:29.080Z,16.00
2022-10-31T17:41:48.958Z,10.63
2022-10-31T17:46:59.004Z,9.82
2022-10-31T17:52:04.950Z,9.43
2022-10-31T17:57:26.382Z,17.90
2022-10-31T18:02:34.035Z,11.45
2022-10-31T18:07:48.781Z,10.38
2022-10-31T18:12:56.491Z,12.50
2022-10-31T18:18:13.310Z,10.52
2022-10-31T18:23:30.645Z,10.18
2022-10-31T18:28:42.604Z,10.95
2022-10-31T18:33:52.304Z,10.45
2022-10-31T18:38:57.226Z,10.20
2022-10-31T18:44:14.869Z,12.73
2022-10-31T18:49:29.445Z,11.10
2022-10-31T18:54:34.678Z,10.82
2022-10-31T18:59:54.312Z,11.45
2022-10-31T19:05:06.051Z,11.82
2022-10-31T19:10:16.788Z,11.77
2022-10-31T19:21:08.077Z,11.05
2022-10-31T19:26:28.827Z,10.90
2022-10-31T19:31:51.964Z,12.60
2022-10-31T19:37:25.111Z,12.90
2022-10-31T19:42:31.409Z,12.55
2022-10-31T19:47:36.053Z,13.10
2022-10-31T19:53:14.072Z,19.90
2022-10-31T19:58:24.441Z,13.00
2022-10-31T20:03:31.622Z,12.98
2022-10-31T20:08:39.945Z,12.82
2022-10-31T20:19:05.043Z,13.70
2022-10-31T20:24:09.429Z,16.00
2022-10-31T20:34:53.602Z,15.85
2022-10-31T20:39:58.852Z,14.52
2022-10-31T20:45:17.987Z,15.27
2022-10-31T20:50:43.012Z,15.00
2022-10-31T20:55:46.528Z,14.70
2022-10-31T21:00:53.775Z,14.57
2022-10-31T21:11:22.189Z,15.75
2022-10-31T21:16:30.079Z,15.05
2022-10-31T21:21:39.057Z,16.13
2022-10-31T21:26:51.820Z,15.70
2022-10-31T21:32:15.612Z,15.18
2022-10-31T21:37:33.816Z,16.30
2022-10-31T21:42:45.348Z,15.82
2022-10-31T21:47:57.159Z,16.40
2022-10-31T21:53:32.574Z,11.68
2022-10-31T21:58:38.744Z,13.82
2022-10-31T22:03:48.580Z,10.13
2022-10-31T22:09:08.830Z,9.27
2022-10-31T22:14:27.886Z,8.60
2022-10-31T22:20:12.980Z,10.85
2022-10-31T22:30:50.169Z,9.18
2022-10-31T22:36:03.593Z,8.60
2022-10-31T22:41:09.049Z,7.93
2022-10-31T22:46:25.278Z,8.10
2022-10-31T22:51:34.296Z,9.15
2022-10-31T22:56:46.367Z,8.57
2022-10-31T23:01:57.971Z,6.55
2022-10-31T23:07:05.728Z,7.10
2022-10-31T23:12:28.902Z,7.45
2022-10-31T23:17:48.419Z,6.95
2022-10-31T23:22:58.314Z,8.05
2022-10-31T23:28:11.651Z,7.50
2022-10-31T23:33:19.217Z,7.32
2022-10-31T23:38:36.960Z,6.53
2022-10-31T23:44:00.641Z,6.20
2022-10-31T23:49:07.421Z,7.50
2022-10-31T23:54:45.683Z,8.05
2022-10-31T23:59:50.994Z,7.30
